sensor_id;sensor_type;location;lat;lon;timestamp;P1;durP1;ratioP1;P2;durP2;ratioP2
10469;SDS011;5282;47.052;15.458;2023-02-28T00:01:34;5.20;;;4.90;;
10469;SDS011;5282;47.052;15.458;2023-02-28T00:04:01;5.37;;;5.00;;
10469;SDS011;5282;47.052;15.458;2023-02-28T00:06:29;4.67;;;4.47;;
10469;SDS011;5282;47.052;15.458;2023-02-28T00:08:55;4.97;;;4.77;;
10469;SDS011;5282;47.052;15.458;2023-02-28T00:11:22;4.83;;;4.50;;
10469;SDS011;5282;47.052;15.458;2023-02-28T00:13:51;5.30;;;4.80;;
10469;SDS011;5282;47.052;15.458;2023-02-28T00:16:20;6.10;;;5.60;;
10469;SDS011;5282;47.052;15.458;2023-02-28T00:18:50;6.83;;;6.23;;
10469;SDS011;5282;47.052;15.458;2023-02-28T00:21:17;7.70;;;7.10;;
10469;SDS011;5282;47.052;15.458;2023-02-28T00:23:45;7.20;;;6.60;;
10469;SDS011;5282;47.052;15.458;2023-02-28T00:26:13;7.23;;;6.63;;
10469;SDS011;5282;47.052;15.458;2023-02-28T00:28:40;6.87;;;6.37;;
10469;SDS011;5282;47.052;15.458;2023-02-28T00:31:08;7.47;;;6.97;;
10469;SDS011;5282;47.052;15.458;2023-02-28T00:33:35;7.13;;;6.43;;
10469;SDS011;5282;47.052;15.458;2023-02-28T00:36:03;6.60;;;6.10;;
10469;SDS011;5282;47.052;15.458;2023-02-28T00:38:31;5.90;;;5.50;;
10469;SDS011;5282;47.052;15.458;2023-02-28T00:40:58;6.50;;;5.90;;
10469;SDS011;5282;47.052;15.458;2023-02-28T00:43:30;6.33;;;5.80;;
10469;SDS011;5282;47.052;15.458;2023-02-28T00:45:58;5.80;;;5.40;;
10469;SDS011;5282;47.052;15.458;2023-02-28T00:48:29;6.10;;;5.70;;
10469;SDS011;5282;47.052;15.458;2023-02-28T00:50:57;6.33;;;5.77;;
10469;SDS011;5282;47.052;15.458;2023-02-28T00:53:23;6.20;;;5.80;;
10469;SDS011;5282;47.052;15.458;2023-02-28T00:55:50;6.37;;;5.87;;
10469;SDS011;5282;47.052;15.458;2023-02-28T00:58:17;5.87;;;5.53;;
10469;SDS011;5282;47.052;15.458;2023-02-28T01:00:44;6.50;;;6.10;;
10469;SDS011;5282;47.052;15.458;2023-02-28T01:03:14;6.43;;;5.93;;
10469;SDS011;5282;47.052;15.458;2023-02-28T01:05:43;5.33;;;5.03;;
10469;SDS011;5282;47.052;15.458;2023-02-28T01:08:10;5.53;;;5.23;;
10469;SDS011;5282;47.052;15.458;2023-02-28T01:10:37;6.60;;;6.20;;
10469;SDS011;5282;47.052;15.458;2023-02-28T01:13:04;6.00;;;5.67;;
10469;SDS011;5282;47.052;15.458;2023-02-28T01:15:31;7.50;;;6.90;;
10469;SDS011;5282;47.052;15.458;2023-02-28T01:17:58;8.43;;;7.83;;
10469;SDS011;5282;47.052;15.458;2023-02-28T01:20:25;8.83;;;7.80;;
10469;SDS011;5282;47.052;15.458;2023-02-28T01:22:54;9.10;;;8.23;;
10469;SDS011;5282;47.052;15.458;2023-02-28T01:25:21;8.20;;;7.60;;
10469;SDS011;5282;47.052;15.458;2023-02-28T01:27:47;9.13;;;8.13;;
10469;SDS011;5282;47.052;15.458;2023-02-28T01:30:14;7.53;;;6.83;;
10469;SDS011;5282;47.052;15.458;2023-02-28T01:32:41;8.83;;;7.23;;
10469;SDS011;5282;47.052;15.458;2023-02-28T01:35:08;8.30;;;7.57;;
10469;SDS011;5282;47.052;15.458;2023-02-28T01:37:35;8.83;;;7.70;;
10469;SDS011;5282;47.052;15.458;2023-02-28T01:40:04;7.80;;;7.10;;
10469;SDS011;5282;47.052;15.458;2023-02-28T01:42:32;7.00;;;6.50;;
10469;SDS011;5282;47.052;15.458;2023-02-28T01:45:04;6.67;;;6.27;;
10469;SDS011;5282;47.052;15.458;2023-02-28T01:47:44;5.50;;;5.20;;
10469;SDS011;5282;47.052;15.458;2023-02-28T01:50:13;6.07;;;5.67;;
10469;SDS011;5282;47.052;15.458;2023-02-28T01:52:44;6.20;;;5.80;;
10469;SDS011;5282;47.052;15.458;2023-02-28T01:55:14;6.50;;;6.10;;
10469;SDS011;5282;47.052;15.458;2023-02-28T01:57:48;6.50;;;6.00;;
10469;SDS011;5282;47.052;15.458;2023-02-28T02:00:18;6.40;;;5.90;;
10469;SDS011;5282;47.052;15.458;2023-02-28T02:02:50;6.93;;;6.37;;
10469;SDS011;5282;47.052;15.458;2023-02-28T02:05:21;6.67;;;5.60;;
10469;SDS011;5282;47.052;15.458;2023-02-28T02:07:50;6.77;;;6.27;;
10469;SDS011;5282;47.052;15.458;2023-02-28T02:10:24;6.30;;;5.90;;
10469;SDS011;5282;47.052;15.458;2023-02-28T02:12:59;5.93;;;5.63;;
10469;SDS011;5282;47.052;15.458;2023-02-28T02:15:44;6.77;;;6.13;;
10469;SDS011;5282;47.052;15.458;2023-02-28T02:18:25;6.43;;;5.93;;
10469;SDS011;5282;47.052;15.458;2023-02-28T02:21:07;5.80;;;5.30;;
10469;SDS011;5282;47.052;15.458;2023-02-28T02:33:01;6.43;;;5.93;;
10469;SDS011;5282;47.052;15.458;2023-02-28T02:35:40;6.00;;;5.60;;
10469;SDS011;5282;47.052;15.458;2023-02-28T02:38:17;6.13;;;5.70;;
10469;SDS011;5282;47.052;15.458;2023-02-28T02:40:53;6.30;;;5.80;;
10469;SDS011;5282;47.052;15.458;2023-02-28T02:43:26;6.17;;;5.73;;
10469;SDS011;5282;47.052;15.458;2023-02-28T02:45:59;5.90;;;5.40;;
10469;SDS011;5282;47.052;15.458;2023-02-28T02:48:32;6.00;;;5.60;;
10469;SDS011;5282;47.052;15.458;2023-02-28T02:51:05;6.00;;;5.70;;
10469;SDS011;5282;47.052;15.458;2023-02-28T02:53:38;6.40;;;6.00;;
10469;SDS011;5282;47.052;15.458;2023-02-28T02:56:09;6.00;;;5.60;;
10469;SDS011;5282;47.052;15.458;2023-02-28T02:58:40;6.07;;;5.63;;
10469;SDS011;5282;47.052;15.458;2023-02-28T03:01:10;6.30;;;5.90;;
10469;SDS011;5282;47.052;15.458;2023-02-28T03:03:41;6.43;;;5.77;;
10469;SDS011;5282;47.052;15.458;2023-02-28T03:06:09;6.60;;;5.87;;
10469;SDS011;5282;47.052;15.458;2023-02-28T03:08:37;5.67;;;5.17;;
10469;SDS011;5282;47.052;15.458;2023-02-28T03:11:05;5.80;;;5.40;;
10469;SDS011;5282;47.052;15.458;2023-02-28T03:13:54;6.33;;;5.83;;
10469;SDS011;5282;47.052;15.458;2023-02-28T03:16:33;5.50;;;5.10;;
10469;SDS011;5282;47.052;15.458;2023-02-28T03:19:06;5.63;;;5.23;;
10469;SDS011;5282;47.052;15.458;2023-02-28T03:21:51;6.53;;;6.10;;
10469;SDS011;5282;47.052;15.458;2023-02-28T03:24:31;6.23;;;5.73;;
10469;SDS011;5282;47.052;15.458;2023-02-28T03:27:05;5.90;;;5.30;;
10469;SDS011;5282;47.052;15.458;2023-02-28T03:29:37;5.80;;;5.50;;
10469;SDS011;5282;47.052;15.458;2023-02-28T03:32:11;6.33;;;5.73;;
10469;SDS011;5282;47.052;15.458;2023-02-28T03:34:50;6.70;;;6.13;;
10469;SDS011;5282;47.052;15.458;2023-02-28T03:37:24;6.47;;;5.73;;
10469;SDS011;5282;47.052;15.458;2023-02-28T03:39:56;6.23;;;5.70;;
10469;SDS011;5282;47.052;15.458;2023-02-28T03:42:26;6.30;;;5.90;;
10469;SDS011;5282;47.052;15.458;2023-02-28T03:44:56;5.30;;;5.00;;
10469;SDS011;5282;47.052;15.458;2023-02-28T03:47:27;6.07;;;5.77;;
10469;SDS011;5282;47.052;15.458;2023-02-28T03:49:59;6.20;;;5.90;;
10469;SDS011;5282;47.052;15.458;2023-02-28T03:52:32;6.50;;;5.77;;
10469;SDS011;5282;47.052;15.458;2023-02-28T03:55:05;6.27;;;5.83;;
10469;SDS011;5282;47.052;15.458;2023-02-28T03:57:37;6.57;;;6.07;;
10469;SDS011;5282;47.052;15.458;2023-02-28T04:00:08;6.60;;;6.00;;
10469;SDS011;5282;47.052;15.458;2023-02-28T04:02:40;6.97;;;6.37;;
10469;SDS011;5282;47.052;15.458;2023-02-28T04:05:08;6.93;;;6.33;;
10469;SDS011;5282;47.052;15.458;2023-02-28T04:07:36;6.37;;;5.97;;
10469;SDS011;5282;47.052;15.458;2023-02-28T04:10:04;6.53;;;6.03;;
10469;SDS011;5282;47.052;15.458;2023-02-28T04:12:32;6.70;;;6.20;;
10469;SDS011;5282;47.052;15.458;2023-02-28T04:15:01;6.97;;;6.50;;
10469;SDS011;5282;47.052;15.458;2023-02-28T04:17:27;6.37;;;5.97;;
10469;SDS011;5282;47.052;15.458;2023-02-28T04:19:54;6.70;;;6.10;;
10469;SDS011;5282;47.052;15.458;2023-02-28T04:22:22;6.87;;;6.20;;
10469;SDS011;5282;47.052;15.458;2023-02-28T04:24:53;7.33;;;6.63;;
10469;SDS011;5282;47.052;15.458;2023-02-28T04:27:20;6.40;;;6.00;;
10469;SDS011;5282;47.052;15.458;2023-02-28T04:29:48;7.40;;;6.50;;
10469;SDS011;5282;47.052;15.458;2023-02-28T04:32:15;7.30;;;5.60;;
10469;SDS011;5282;47.052;15.458;2023-02-28T04:34:42;6.30;;;5.90;;
10469;SDS011;5282;47.052;15.458;2023-02-28T04:37:11;6.63;;;6.13;;
10469;SDS011;5282;47.052;15.458;2023-02-28T04:39:39;6.30;;;5.80;;
10469;SDS011;5282;47.052;15.458;2023-02-28T04:42:08;6.53;;;6.00;;
10469;SDS011;5282;47.052;15.458;2023-02-28T04:44:36;7.17;;;6.67;;
10469;SDS011;5282;47.052;15.458;2023-02-28T04:47:03;7.63;;;6.63;;
10469;SDS011;5282;47.052;15.458;2023-02-28T04:49:30;6.80;;;6.30;;
10469;SDS011;5282;47.052;15.458;2023-02-28T04:51:57;6.23;;;5.93;;
10469;SDS011;5282;47.052;15.458;2023-02-28T04:54:24;6.73;;;6.23;;
10469;SDS011;5282;47.052;15.458;2023-02-28T04:56:51;7.40;;;6.70;;
10469;SDS011;5282;47.052;15.458;2023-02-28T04:59:19;7.27;;;6.70;;
10469;SDS011;5282;47.052;15.458;2023-02-28T05:01:47;7.30;;;6.67;;
10469;SDS011;5282;47.052;15.458;2023-02-28T05:04:17;8.23;;;7.43;;
10469;SDS011;5282;47.052;15.458;2023-02-28T05:06:44;10.87;;;7.00;;
10469;SDS011;5282;47.052;15.458;2023-02-28T05:09:11;7.23;;;6.63;;
10469;SDS011;5282;47.052;15.458;2023-02-28T05:11:38;7.60;;;6.80;;
10469;SDS011;5282;47.052;15.458;2023-02-28T05:14:07;7.63;;;7.03;;
10469;SDS011;5282;47.052;15.458;2023-02-28T05:16:38;6.40;;;6.00;;
10469;SDS011;5282;47.052;15.458;2023-02-28T05:19:05;7.57;;;6.97;;
10469;SDS011;5282;47.052;15.458;2023-02-28T05:21:32;7.57;;;6.97;;
10469;SDS011;5282;47.052;15.458;2023-02-28T05:24:01;7.33;;;6.73;;
10469;SDS011;5282;47.052;15.458;2023-02-28T05:26:30;7.77;;;7.03;;
10469;SDS011;5282;47.052;15.458;2023-02-28T05:28:57;8.40;;;7.60;;
10469;SDS011;5282;47.052;15.458;2023-02-28T05:31:24;7.40;;;6.70;;
10469;SDS011;5282;47.052;15.458;2023-02-28T05:33:52;7.60;;;6.90;;
10469;SDS011;5282;47.052;15.458;2023-02-28T05:36:21;8.50;;;6.90;;
10469;SDS011;5282;47.052;15.458;2023-02-28T05:38:49;7.67;;;6.93;;
10469;SDS011;5282;47.052;15.458;2023-02-28T05:41:16;12.30;;;7.60;;
10469;SDS011;5282;47.052;15.458;2023-02-28T05:43:44;7.87;;;7.07;;
10469;SDS011;5282;47.052;15.458;2023-02-28T05:46:12;9.47;;;7.40;;
10469;SDS011;5282;47.052;15.458;2023-02-28T05:48:40;8.43;;;7.63;;
10469;SDS011;5282;47.052;15.458;2023-02-28T05:51:09;7.73;;;7.17;;
10469;SDS011;5282;47.052;15.458;2023-02-28T05:53:36;9.80;;;6.83;;
10469;SDS011;5282;47.052;15.458;2023-02-28T05:56:04;8.60;;;7.23;;
10469;SDS011;5282;47.052;15.458;2023-02-28T05:58:31;9.93;;;7.70;;
10469;SDS011;5282;47.052;15.458;2023-02-28T06:01:00;9.80;;;7.17;;
10469;SDS011;5282;47.052;15.458;2023-02-28T06:03:45;10.77;;;7.23;;
10469;SDS011;5282;47.052;15.458;2023-02-28T06:06:13;11.67;;;7.27;;
10469;SDS011;5282;47.052;15.458;2023-02-28T06:08:40;8.70;;;7.90;;
10469;SDS011;5282;47.052;15.458;2023-02-28T06:11:08;13.17;;;8.00;;
10469;SDS011;5282;47.052;15.458;2023-02-28T06:13:35;9.60;;;7.20;;
10469;SDS011;5282;47.052;15.458;2023-02-28T06:16:02;10.97;;;7.70;;
10469;SDS011;5282;47.052;15.458;2023-02-28T06:18:30;8.30;;;7.50;;
10469;SDS011;5282;47.052;15.458;2023-02-28T06:20:57;8.90;;;8.00;;
10469;SDS011;5282;47.052;15.458;2023-02-28T06:23:25;12.67;;;8.07;;
10469;SDS011;5282;47.052;15.458;2023-02-28T06:25:52;15.23;;;8.30;;
10469;SDS011;5282;47.052;15.458;2023-02-28T06:28:23;10.50;;;8.93;;
10469;SDS011;5282;47.052;15.458;2023-02-28T06:30:50;9.43;;;8.63;;
10469;SDS011;5282;47.052;15.458;2023-02-28T06:33:17;10.23;;;9.23;;
10469;SDS011;5282;47.052;15.458;2023-02-28T06:35:46;9.17;;;8.20;;
10469;SDS011;5282;47.052;15.458;2023-02-28T06:38:13;10.33;;;8.87;;
10469;SDS011;5282;47.052;15.458;2023-02-28T06:40:41;9.03;;;8.20;;
10469;SDS011;5282;47.052;15.458;2023-02-28T06:43:09;9.30;;;8.43;;
10469;SDS011;5282;47.052;15.458;2023-02-28T06:45:41;8.60;;;7.87;;
10469;SDS011;5282;47.052;15.458;2023-02-28T06:48:08;8.97;;;7.50;;
10469;SDS011;5282;47.052;15.458;2023-02-28T06:50:35;13.07;;;8.50;;
10469;SDS011;5282;47.052;15.458;2023-02-28T06:53:03;9.17;;;8.27;;
10469;SDS011;5282;47.052;15.458;2023-02-28T06:55:30;12.53;;;8.40;;
10469;SDS011;5282;47.052;15.458;2023-02-28T06:57:58;9.77;;;8.77;;
10469;SDS011;5282;47.052;15.458;2023-02-28T07:00:25;11.43;;;8.20;;
10469;SDS011;5282;47.052;15.458;2023-02-28T07:02:52;9.03;;;8.30;;
10469;SDS011;5282;47.052;15.458;2023-02-28T07:05:20;13.00;;;8.70;;
10469;SDS011;5282;47.052;15.458;2023-02-28T07:07:49;9.77;;;8.60;;
10469;SDS011;5282;47.052;15.458;2023-02-28T07:10:18;9.93;;;8.77;;
10469;SDS011;5282;47.052;15.458;2023-02-28T07:12:45;11.17;;;8.87;;
10469;SDS011;5282;47.052;15.458;2023-02-28T07:15:13;8.73;;;7.93;;
10469;SDS011;5282;47.052;15.458;2023-02-28T07:17:40;9.60;;;7.90;;
10469;SDS011;5282;47.052;15.458;2023-02-28T07:20:07;9.23;;;8.53;;
10469;SDS011;5282;47.052;15.458;2023-02-28T07:22:35;9.57;;;8.57;;
10469;SDS011;5282;47.052;15.458;2023-02-28T07:25:02;12.13;;;8.93;;
10469;SDS011;5282;47.052;15.458;2023-02-28T07:27:29;11.57;;;8.87;;
10469;SDS011;5282;47.052;15.458;2023-02-28T07:29:59;10.67;;;9.67;;
10469;SDS011;5282;47.052;15.458;2023-02-28T07:32:30;10.10;;;9.20;;
10469;SDS011;5282;47.052;15.458;2023-02-28T07:34:57;9.97;;;8.97;;
10469;SDS011;5282;47.052;15.458;2023-02-28T07:37:24;12.93;;;8.93;;
10469;SDS011;5282;47.052;15.458;2023-02-28T07:39:51;10.40;;;8.63;;
10469;SDS011;5282;47.052;15.458;2023-02-28T07:42:18;9.60;;;8.80;;
10469;SDS011;5282;47.052;15.458;2023-02-28T07:44:44;8.77;;;8.10;;
10469;SDS011;5282;47.052;15.458;2023-02-28T07:47:12;14.17;;;8.83;;
10469;SDS011;5282;47.052;15.458;2023-02-28T07:49:40;10.87;;;8.13;;
10469;SDS011;5282;47.052;15.458;2023-02-28T07:52:09;12.77;;;8.63;;
10469;SDS011;5282;47.052;15.458;2023-02-28T07:54:36;9.30;;;8.33;;
10469;SDS011;5282;47.052;15.458;2023-02-28T07:57:03;10.63;;;8.80;;
10469;SDS011;5282;47.052;15.458;2023-02-28T07:59:30;9.33;;;8.47;;
10469;SDS011;5282;47.052;15.458;2023-02-28T08:01:56;10.50;;;8.70;;
10469;SDS011;5282;47.052;15.458;2023-02-28T08:04:24;12.33;;;9.30;;
10469;SDS011;5282;47.052;15.458;2023-02-28T08:06:52;12.90;;;8.90;;
10469;SDS011;5282;47.052;15.458;2023-02-28T08:09:21;12.03;;;8.73;;
10469;SDS011;5282;47.052;15.458;2023-02-28T08:11:48;8.57;;;7.83;;
10469;SDS011;5282;47.052;15.458;2023-02-28T08:14:15;9.53;;;8.70;;
10469;SDS011;5282;47.052;15.458;2023-02-28T08:16:43;10.80;;;9.13;;
10469;SDS011;5282;47.052;15.458;2023-02-28T08:19:10;10.30;;;9.40;;
10469;SDS011;5282;47.052;15.458;2023-02-28T08:21:37;11.83;;;9.40;;
10469;SDS011;5282;47.052;15.458;2023-02-28T08:24:06;9.80;;;8.90;;
10469;SDS011;5282;47.052;15.458;2023-02-28T08:26:33;9.73;;;8.73;;
10469;SDS011;5282;47.052;15.458;2023-02-28T08:29:00;10.87;;;9.27;;
10469;SDS011;5282;47.052;15.458;2023-02-28T08:31:27;10.43;;;9.00;;
10469;SDS011;5282;47.052;15.458;2023-02-28T08:33:54;9.87;;;8.73;;
10469;SDS011;5282;47.052;15.458;2023-02-28T08:36:24;10.23;;;9.40;;
10469;SDS011;5282;47.052;15.458;2023-02-28T08:38:53;13.00;;;11.67;;
10469;SDS011;5282;47.052;15.458;2023-02-28T08:41:22;10.90;;;9.80;;
10469;SDS011;5282;47.052;15.458;2023-02-28T08:43:48;10.70;;;9.70;;
10469;SDS011;5282;47.052;15.458;2023-02-28T08:46:15;10.70;;;9.17;;
10469;SDS011;5282;47.052;15.458;2023-02-28T08:48:42;17.27;;;9.47;;
10469;SDS011;5282;47.052;15.458;2023-02-28T08:51:12;10.17;;;9.17;;
10469;SDS011;5282;47.052;15.458;2023-02-28T08:53:41;9.97;;;9.03;;
10469;SDS011;5282;47.052;15.458;2023-02-28T08:56:09;12.07;;;10.47;;
10469;SDS011;5282;47.052;15.458;2023-02-28T08:58:41;12.97;;;9.67;;
10469;SDS011;5282;47.052;15.458;2023-02-28T09:01:09;10.67;;;9.63;;
10469;SDS011;5282;47.052;15.458;2023-02-28T09:03:37;10.10;;;9.13;;
10469;SDS011;5282;47.052;15.458;2023-02-28T09:06:04;11.70;;;9.10;;
10469;SDS011;5282;47.052;15.458;2023-02-28T09:08:31;10.13;;;9.13;;
10469;SDS011;5282;47.052;15.458;2023-02-28T09:10:58;13.13;;;9.60;;
10469;SDS011;5282;47.052;15.458;2023-02-28T09:13:27;10.83;;;9.83;;
10469;SDS011;5282;47.052;15.458;2023-02-28T09:15:55;10.50;;;9.43;;
10469;SDS011;5282;47.052;15.458;2023-02-28T09:18:24;9.87;;;8.87;;
10469;SDS011;5282;47.052;15.458;2023-02-28T09:20:51;10.53;;;9.40;;
10469;SDS011;5282;47.052;15.458;2023-02-28T09:23:18;11.43;;;9.50;;
10469;SDS011;5282;47.052;15.458;2023-02-28T09:25:46;10.30;;;9.37;;
10469;SDS011;5282;47.052;15.458;2023-02-28T09:28:14;14.33;;;10.40;;
10469;SDS011;5282;47.052;15.458;2023-02-28T09:30:42;10.80;;;9.80;;
10469;SDS011;5282;47.052;15.458;2023-02-28T09:33:12;13.57;;;8.97;;
10469;SDS011;5282;47.052;15.458;2023-02-28T09:35:40;11.13;;;9.20;;
10469;SDS011;5282;47.052;15.458;2023-02-28T09:38:08;11.37;;;9.53;;
10469;SDS011;5282;47.052;15.458;2023-02-28T09:40:36;11.30;;;10.10;;
10469;SDS011;5282;47.052;15.458;2023-02-28T09:43:04;10.63;;;9.23;;
10469;SDS011;5282;47.052;15.458;2023-02-28T09:45:33;11.70;;;9.70;;
10469;SDS011;5282;47.052;15.458;2023-02-28T09:48:06;11.20;;;10.20;;
10469;SDS011;5282;47.052;15.458;2023-02-28T09:50:42;11.80;;;9.67;;
10469;SDS011;5282;47.052;15.458;2023-02-28T09:53:14;12.03;;;9.30;;
10469;SDS011;5282;47.052;15.458;2023-02-28T09:55:47;10.77;;;9.67;;
10469;SDS011;5282;47.052;15.458;2023-02-28T09:58:18;13.40;;;9.77;;
10469;SDS011;5282;47.052;15.458;2023-02-28T10:00:51;11.53;;;9.83;;
10469;SDS011;5282;47.052;15.458;2023-02-28T10:03:25;12.33;;;8.93;;
10469;SDS011;5282;47.052;15.458;2023-02-28T10:05:59;10.17;;;9.27;;
10469;SDS011;5282;47.052;15.458;2023-02-28T10:08:35;10.30;;;9.30;;
10469;SDS011;5282;47.052;15.458;2023-02-28T10:11:09;10.10;;;9.10;;
10469;SDS011;5282;47.052;15.458;2023-02-28T10:13:40;10.80;;;9.70;;
10469;SDS011;5282;47.052;15.458;2023-02-28T10:16:17;15.03;;;11.00;;
10469;SDS011;5282;47.052;15.458;2023-02-28T10:18:50;11.03;;;10.03;;
10469;SDS011;5282;47.052;15.458;2023-02-28T10:21:24;10.53;;;9.63;;
10469;SDS011;5282;47.052;15.458;2023-02-28T10:23:57;11.40;;;10.30;;
10469;SDS011;5282;47.052;15.458;2023-02-28T10:26:30;11.00;;;10.00;;
10469;SDS011;5282;47.052;15.458;2023-02-28T10:28:58;10.67;;;9.67;;
10469;SDS011;5282;47.052;15.458;2023-02-28T10:31:25;17.97;;;10.73;;
10469;SDS011;5282;47.052;15.458;2023-02-28T10:33:53;11.00;;;9.93;;
10469;SDS011;5282;47.052;15.458;2023-02-28T10:36:20;10.27;;;9.37;;
10469;SDS011;5282;47.052;15.458;2023-02-28T10:38:49;11.30;;;10.23;;
10469;SDS011;5282;47.052;15.458;2023-02-28T10:41:26;12.70;;;10.33;;
10469;SDS011;5282;47.052;15.458;2023-02-28T10:44:12;11.10;;;10.03;;
10469;SDS011;5282;47.052;15.458;2023-02-28T10:46:41;12.07;;;9.97;;
10469;SDS011;5282;47.052;15.458;2023-02-28T10:49:12;11.73;;;10.63;;
10469;SDS011;5282;47.052;15.458;2023-02-28T10:51:41;10.90;;;9.90;;
10469;SDS011;5282;47.052;15.458;2023-02-28T10:54:16;11.40;;;10.37;;
10469;SDS011;5282;47.052;15.458;2023-02-28T10:56:45;11.10;;;10.07;;
10469;SDS011;5282;47.052;15.458;2023-02-28T10:59:32;12.17;;;10.93;;
10469;SDS011;5282;47.052;15.458;2023-02-28T11:01:59;11.50;;;10.47;;
10469;SDS011;5282;47.052;15.458;2023-02-28T11:04:33;11.33;;;10.23;;
10469;SDS011;5282;47.052;15.458;2023-02-28T11:07:03;11.27;;;9.83;;
10469;SDS011;5282;47.052;15.458;2023-02-28T11:09:37;11.17;;;10.07;;
10469;SDS011;5282;47.052;15.458;2023-02-28T11:12:07;10.50;;;9.50;;
10469;SDS011;5282;47.052;15.458;2023-02-28T11:14:47;11.70;;;10.70;;
10469;SDS011;5282;47.052;15.458;2023-02-28T11:17:19;11.33;;;10.17;;
10469;SDS011;5282;47.052;15.458;2023-02-28T11:19:47;12.17;;;10.27;;
10469;SDS011;5282;47.052;15.458;2023-02-28T11:22:18;11.53;;;10.20;;
10469;SDS011;5282;47.052;15.458;2023-02-28T11:24:50;11.70;;;10.50;;
10469;SDS011;5282;47.052;15.458;2023-02-28T11:27:45;11.20;;;10.20;;
10469;SDS011;5282;47.052;15.458;2023-02-28T11:30:23;13.97;;;11.10;;
10469;SDS011;5282;47.052;15.458;2023-02-28T11:32:55;13.50;;;10.50;;
10469;SDS011;5282;47.052;15.458;2023-02-28T11:35:23;11.90;;;10.67;;
10469;SDS011;5282;47.052;15.458;2023-02-28T11:37:53;13.20;;;11.80;;
10469;SDS011;5282;47.052;15.458;2023-02-28T11:40:24;12.40;;;11.17;;
10469;SDS011;5282;47.052;15.458;2023-02-28T11:43:01;13.00;;;11.47;;
10469;SDS011;5282;47.052;15.458;2023-02-28T11:45:44;12.73;;;11.50;;
10469;SDS011;5282;47.052;15.458;2023-02-28T11:48:22;11.93;;;10.83;;
10469;SDS011;5282;47.052;15.458;2023-02-28T11:50:56;13.00;;;11.70;;
10469;SDS011;5282;47.052;15.458;2023-02-28T11:56:25;12.30;;;11.03;;
10469;SDS011;5282;47.052;15.458;2023-02-28T11:59:02;14.17;;;11.80;;
10469;SDS011;5282;47.052;15.458;2023-02-28T12:01:58;18.63;;;12.37;;
10469;SDS011;5282;47.052;15.458;2023-02-28T12:04:47;14.87;;;11.57;;
10469;SDS011;5282;47.052;15.458;2023-02-28T12:07:24;13.63;;;11.37;;
10469;SDS011;5282;47.052;15.458;2023-02-28T12:10:02;15.57;;;11.77;;
10469;SDS011;5282;47.052;15.458;2023-02-28T12:12:43;12.60;;;11.40;;
10469;SDS011;5282;47.052;15.458;2023-02-28T12:15:38;16.30;;;11.70;;
10469;SDS011;5282;47.052;15.458;2023-02-28T12:18:53;13.93;;;12.13;;
10469;SDS011;5282;47.052;15.458;2023-02-28T12:21:32;15.73;;;12.50;;
10469;SDS011;5282;47.052;15.458;2023-02-28T12:24:20;14.40;;;10.90;;
10469;SDS011;5282;47.052;15.458;2023-02-28T12:26:57;13.57;;;12.17;;
10469;SDS011;5282;47.052;15.458;2023-02-28T12:29:30;13.10;;;11.70;;
10469;SDS011;5282;47.052;15.458;2023-02-28T12:32:03;15.10;;;12.47;;
10469;SDS011;5282;47.052;15.458;2023-02-28T12:34:33;14.43;;;12.17;;
10469;SDS011;5282;47.052;15.458;2023-02-28T12:37:04;14.03;;;12.57;;
10469;SDS011;5282;47.052;15.458;2023-02-28T12:39:37;16.37;;;12.60;;
10469;SDS011;5282;47.052;15.458;2023-02-28T12:42:10;15.97;;;13.93;;
10469;SDS011;5282;47.052;15.458;2023-02-28T12:44:46;13.77;;;12.10;;
10469;SDS011;5282;47.052;15.458;2023-02-28T12:47:17;15.37;;;12.30;;
10469;SDS011;5282;47.052;15.458;2023-02-28T12:49:45;14.53;;;13.03;;
10469;SDS011;5282;47.052;15.458;2023-02-28T12:52:17;14.67;;;12.53;;
10469;SDS011;5282;47.052;15.458;2023-02-28T12:54:51;19.93;;;13.10;;
10469;SDS011;5282;47.052;15.458;2023-02-28T12:57:24;16.10;;;12.57;;
10469;SDS011;5282;47.052;15.458;2023-02-28T13:00:02;12.93;;;11.63;;
10469;SDS011;5282;47.052;15.458;2023-02-28T13:05:49;17.93;;;12.70;;
10469;SDS011;5282;47.052;15.458;2023-02-28T13:08:36;16.17;;;12.30;;
10469;SDS011;5282;47.052;15.458;2023-02-28T13:11:23;13.33;;;11.93;;
10469;SDS011;5282;47.052;15.458;2023-02-28T13:13:57;15.87;;;12.70;;
10469;SDS011;5282;47.052;15.458;2023-02-28T13:16:26;14.30;;;12.80;;
10469;SDS011;5282;47.052;15.458;2023-02-28T13:18:56;15.20;;;12.83;;
10469;SDS011;5282;47.052;15.458;2023-02-28T13:21:43;14.87;;;12.30;;
10469;SDS011;5282;47.052;15.458;2023-02-28T13:24:11;15.87;;;12.53;;
10469;SDS011;5282;47.052;15.458;2023-02-28T13:27:10;15.13;;;12.30;;
10469;SDS011;5282;47.052;15.458;2023-02-28T13:29:58;14.83;;;13.27;;
10469;SDS011;5282;47.052;15.458;2023-02-28T13:32:32;15.43;;;12.40;;
10469;SDS011;5282;47.052;15.458;2023-02-28T13:38:20;14.23;;;12.53;;
10469;SDS011;5282;47.052;15.458;2023-02-28T13:40:50;14.20;;;12.00;;
10469;SDS011;5282;47.052;15.458;2023-02-28T13:43:17;13.23;;;11.67;;
10469;SDS011;5282;47.052;15.458;2023-02-28T13:48:38;13.13;;;11.63;;
10469;SDS011;5282;47.052;15.458;2023-02-28T13:54:04;13.43;;;12.03;;
10469;SDS011;5282;47.052;15.458;2023-02-28T13:56:44;14.47;;;11.47;;
10469;SDS011;5282;47.052;15.458;2023-02-28T13:59:20;11.93;;;10.80;;
10469;SDS011;5282;47.052;15.458;2023-02-28T14:02:03;12.60;;;11.30;;
10469;SDS011;5282;47.052;15.458;2023-02-28T14:04:58;13.37;;;11.97;;
10469;SDS011;5282;47.052;15.458;2023-02-28T14:07:30;15.47;;;12.17;;
10469;SDS011;5282;47.052;15.458;2023-02-28T14:10:01;12.40;;;11.10;;
10469;SDS011;5282;47.052;15.458;2023-02-28T14:15:38;13.33;;;11.47;;
10469;SDS011;5282;47.052;15.458;2023-02-28T14:18:14;12.50;;;11.23;;
10469;SDS011;5282;47.052;15.458;2023-02-28T14:20:46;13.60;;;12.20;;
10469;SDS011;5282;47.052;15.458;2023-02-28T14:23:16;16.00;;;12.70;;
10469;SDS011;5282;47.052;15.458;2023-02-28T14:25:53;13.20;;;11.80;;
10469;SDS011;5282;47.052;15.458;2023-02-28T14:28:37;13.73;;;11.87;;
10469;SDS011;5282;47.052;15.458;2023-02-28T14:31:15;11.97;;;10.77;;
10469;SDS011;5282;47.052;15.458;2023-02-28T14:34:12;11.83;;;10.67;;
10469;SDS011;5282;47.052;15.458;2023-02-28T14:36:53;12.20;;;11.00;;
10469;SDS011;5282;47.052;15.458;2023-02-28T14:39:25;11.43;;;10.40;;
10469;SDS011;5282;47.052;15.458;2023-02-28T14:41:56;11.97;;;10.77;;
10469;SDS011;5282;47.052;15.458;2023-02-28T14:44:24;12.80;;;11.40;;
10469;SDS011;5282;47.052;15.458;2023-02-28T14:46:53;11.37;;;10.37;;
10469;SDS011;5282;47.052;15.458;2023-02-28T14:49:21;13.57;;;11.70;;
10469;SDS011;5282;47.052;15.458;2023-02-28T14:52:02;13.07;;;11.73;;
10469;SDS011;5282;47.052;15.458;2023-02-28T14:54:37;17.97;;;12.03;;
10469;SDS011;5282;47.052;15.458;2023-02-28T14:57:04;13.23;;;11.93;;
10469;SDS011;5282;47.052;15.458;2023-02-28T14:59:32;12.23;;;11.00;;
10469;SDS011;5282;47.052;15.458;2023-02-28T15:02:17;13.37;;;11.50;;
10469;SDS011;5282;47.052;15.458;2023-02-28T15:04:52;12.40;;;11.17;;
10469;SDS011;5282;47.052;15.458;2023-02-28T15:07:22;13.53;;;11.77;;
10469;SDS011;5282;47.052;15.458;2023-02-28T15:10:15;12.40;;;11.20;;
10469;SDS011;5282;47.052;15.458;2023-02-28T15:12:45;12.93;;;11.60;;
10469;SDS011;5282;47.052;15.458;2023-02-28T15:15:18;13.37;;;11.90;;
10469;SDS011;5282;47.052;15.458;2023-02-28T15:17:46;14.23;;;11.70;;
10469;SDS011;5282;47.052;15.458;2023-02-28T15:20:17;13.93;;;12.03;;
10469;SDS011;5282;47.052;15.458;2023-02-28T15:22:47;12.53;;;11.20;;
10469;SDS011;5282;47.052;15.458;2023-02-28T15:25:18;13.17;;;11.63;;
10469;SDS011;5282;47.052;15.458;2023-02-28T15:27:47;14.87;;;11.67;;